Time;durP1;ratioP1;P1;durP2;ratioP2;P2;SDS_P1;SDS_P2;PMS_P1;PMS_P2;Temp;Humidity;BMP_temperature;BMP_pressure;BME280_temperature;BME280_humidity;BME280_pressure;Samples;Min_cycle;Max_cycle;Signal;HPM_P1;HPM_P2
2023/12/16 00:02:42;;;;;;;2.83;2.40;;;;;;;21.94;34.69;95897.84;6162251;28;109731;-61
2023/12/16 00:05:47;;;;;;;2.53;2.10;;;;;;;21.94;34.60;95901.31;6158435;28;109206;-60
2023/12/16 00:08:52;;;;;;;2.40;1.80;;;;;;;21.94;33.99;95903.19;6149629;28;109398;-60
2023/12/16 00:11:55;;;;;;;2.23;1.63;;;;;;;21.95;34.48;95908.22;6150713;28;109117;-60
2023/12/16 00:14:59;;;;;;;1.97;1.77;;;;;;;21.95;34.35;95916.22;6137724;28;109132;-60
2023/12/16 00:18:02;;;;;;;2.40;1.77;;;;;;;21.95;34.23;95918.88;6146687;28;109924;-60
2023/12/16 00:21:05;;;;;;;2.70;2.27;;;;;;;21.95;33.99;95918.09;6156965;28;109460;-60
2023/12/16 00:24:10;;;;;;;2.70;2.20;;;;;;;21.94;33.77;95925.28;6138199;28;110400;-60
2023/12/16 00:27:13;;;;;;;2.20;1.80;;;;;;;21.94;34.23;95930.63;6153617;28;109142;-60
2023/12/16 00:30:16;;;;;;;2.30;1.87;;;;;;;21.92;34.00;95930.09;6134968;28;109294;-60
2023/12/16 00:33:19;;;;;;;2.10;1.50;;;;;;;21.93;34.38;95942.34;6161423;28;109303;-61
2023/12/16 00:36:22;;;;;;;2.10;1.53;;;;;;;21.93;34.35;95939.69;6155856;28;109376;-60
2023/12/16 00:39:27;;;;;;;2.70;1.93;;;;;;;21.91;33.87;95936.53;6162141;28;108891;-65
2023/12/16 00:42:30;;;;;;;2.40;2.03;;;;;;;21.90;34.10;95945.59;6135470;28;109224;-60
2023/12/16 00:45:33;;;;;;;1.80;1.40;;;;;;;21.93;33.89;95939.69;6145086;28;109995;-60
2023/12/16 00:48:36;;;;;;;2.43;1.80;;;;;;;21.95;34.11;95958.84;6158665;28;109156;-60
2023/12/16 00:51:40;;;;;;;2.67;1.60;;;;;;;21.97;33.91;95963.91;6154224;28;109092;-60
2023/12/16 00:54:44;;;;;;;2.87;1.50;;;;;;;21.98;34.30;95960.16;6155540;28;111719;-61
2023/12/16 00:57:47;;;;;;;2.53;1.73;;;;;;;21.97;33.88;95969.22;6153874;28;108818;-60
2023/12/16 01:00:50;;;;;;;1.70;1.47;;;;;;;21.97;34.29;95967.34;6146192;28;109459;-60
2023/12/16 01:03:54;;;;;;;2.47;1.67;;;;;;;21.98;34.09;95965.50;6150527;28;109138;-60
2023/12/16 01:06:57;;;;;;;2.90;1.77;;;;;;;21.97;33.96;95970.03;6146911;28;109445;-60
2023/12/16 01:10:02;;;;;;;2.33;1.37;;;;;;;21.96;33.85;95968.44;6139114;28;109222;-60
2023/12/16 01:13:05;;;;;;;1.90;1.20;;;;;;;21.96;33.75;95973.75;6159044;28;109200;-60
2023/12/16 01:16:09;;;;;;;2.40;1.53;;;;;;;21.95;34.13;95969.50;6143051;28;109146;-60
2023/12/16 01:19:12;;;;;;;1.80;1.20;;;;;;;21.95;34.23;95960.72;6160187;28;110510;-60
2023/12/16 01:22:15;;;;;;;2.00;1.70;;;;;;;21.95;33.83;95972.19;6159387;28;109184;-60
2023/12/16 01:25:20;;;;;;;1.97;1.23;;;;;;;21.94;34.08;95973.25;6159508;28;110464;-61
2023/12/16 01:28:23;;;;;;;1.80;1.30;;;;;;;21.93;34.17;95973.53;6136601;28;109549;-61
2023/12/16 01:31:26;;;;;;;1.63;1.27;;;;;;;21.93;33.77;95971.66;6156624;28;109618;-61
2023/12/16 01:34:29;;;;;;;1.77;1.10;;;;;;;21.92;33.91;95963.97;6159693;28;109694;-61
2023/12/16 01:37:33;;;;;;;2.23;1.40;;;;;;;21.90;34.46;95966.91;6143989;28;109496;-61
2023/12/16 01:40:37;;;;;;;1.63;1.27;;;;;;;21.90;33.79;95974.09;6158941;28;109571;-60
2023/12/16 01:43:41;;;;;;;1.97;1.13;;;;;;;21.90;33.83;95977.56;6158602;28;109049;-61
2023/12/16 01:46:45;;;;;;;1.80;1.07;;;;;;;21.93;34.52;95979.66;6151986;28;110040;-59
2023/12/16 01:49:48;;;;;;;2.00;1.20;;;;;;;22.02;33.90;95983.31;6154616;28;109120;-59
2023/12/16 01:52:53;;;;;;;1.97;1.10;;;;;;;22.05;33.29;95990.75;6158234;28;109207;-59
2023/12/16 01:55:58;;;;;;;1.93;1.40;;;;;;;22.05;33.43;95982.75;6157540;28;109528;-59
2023/12/16 01:59:01;;;;;;;3.00;1.17;;;;;;;22.08;33.56;95992.06;6159664;28;109297;-59
2023/12/16 02:02:05;;;;;;;1.60;1.20;;;;;;;22.09;33.38;95986.44;6142825;28;109310;-59
2023/12/16 02:05:09;;;;;;;1.93;1.23;;;;;;;22.09;33.66;95994.44;6141499;28;109136;-59
2023/12/16 02:08:12;;;;;;;1.40;0.90;;;;;;;22.10;33.60;95997.88;6157507;28;109365;-59
2023/12/16 02:11:16;;;;;;;3.10;0.97;;;;;;;22.10;33.41;95996.03;6148645;28;109141;-59
2023/12/16 02:14:20;;;;;;;1.70;1.27;;;;;;;22.09;33.70;95994.44;6159842;28;109220;-59
2023/12/16 02:17:23;;;;;;;1.87;1.20;;;;;;;22.10;33.45;95998.69;6149738;28;109550;-59
2023/12/16 02:20:26;;;;;;;1.90;1.10;;;;;;;22.13;33.24;95999.19;6159345;28;108767;-59
2023/12/16 02:23:30;;;;;;;1.97;1.20;;;;;;;22.20;33.17;95999.66;6149557;28;109625;-59
2023/12/16 02:26:34;;;;;;;2.07;1.00;;;;;;;22.26;32.89;96014.53;6145914;28;109191;-59
2023/12/16 02:29:37;;;;;;;2.13;1.93;;;;;;;22.30;33.01;96015.53;6163685;28;110466;-59
2023/12/16 02:32:41;;;;;;;24.47;22.67;;;;;;;22.29;33.37;96017.41;6150636;28;110289;-59
2023/12/16 02:35:44;;;;;;;36.53;33.90;;;;;;;22.19;33.59;96017.53;6141801;28;110095;-59
2023/12/16 02:38:48;;;;;;;49.03;45.43;;;;;;;22.13;33.29;96009.84;6161799;28;109351;-58
2023/12/16 02:41:51;;;;;;;36.57;33.87;;;;;;;22.09;32.96;96034.41;6145308;28;109147;-59
2023/12/16 02:44:54;;;;;;;36.70;34.10;;;;;;;22.08;33.53;96027.50;6154060;28;109342;-58
2023/12/16 02:47:57;;;;;;;39.03;36.10;;;;;;;22.10;33.46;96032.53;6147129;28;110722;-59
2023/12/16 02:51:01;;;;;;;42.43;39.33;;;;;;;22.11;33.22;96040.25;6156033;28;108951;-58
2023/12/16 02:54:05;;;;;;;42.57;39.47;;;;;;;22.13;33.06;96052.50;6157552;28;110441;-59
2023/12/16 02:57:08;;;;;;;46.80;43.30;;;;;;;22.11;33.52;96056.25;6143976;28;110558;-59
2023/12/16 03:00:12;;;;;;;40.37;37.37;;;;;;;22.11;33.28;96055.47;6141209;28;108965;-58
2023/12/16 03:03:16;;;;;;;42.90;39.80;;;;;;;22.14;33.62;96054.88;6156620;28;110114;-59
2023/12/16 03:06:19;;;;;;;42.20;39.10;;;;;;;22.13;33.79;96052.50;6161302;28;109242;-59
2023/12/16 03:09:23;;;;;;;42.63;39.60;;;;;;;22.14;33.30;96059.44;6152098;28;109978;-59
2023/12/16 03:12:27;;;;;;;42.50;39.40;;;;;;;22.13;33.71;96057.84;6159080;28;109471;-58
2023/12/16 03:15:30;;;;;;;41.93;38.87;;;;;;;22.13;33.54;96052.50;6158109;28;109406;-59
2023/12/16 03:18:33;;;;;;;48.73;45.23;;;;;;;22.14;33.74;96056.75;6147607;28;109245;-59
2023/12/16 03:21:36;;;;;;;42.60;39.60;;;;;;;22.14;33.85;96064.75;6154773;28;109136;-59
2023/12/16 03:24:41;;;;;;;42.53;39.63;;;;;;;22.14;33.78;96065.56;6141745;28;109225;-59
2023/12/16 03:27:44;;;;;;;40.77;37.87;;;;;;;22.14;33.56;96070.09;6146367;28;109164;-59
2023/12/16 03:30:47;;;;;;;39.20;36.50;;;;;;;22.15;33.98;96077.81;6152585;28;110921;-59
2023/12/16 03:33:50;;;;;;;38.70;35.90;;;;;;;22.14;34.06;96081.53;6157400;28;112703;-59
2023/12/16 03:36:53;;;;;;;38.20;35.50;;;;;;;22.14;34.05;96078.09;6160292;28;109122;-59
2023/12/16 03:39:58;;;;;;;37.53;34.87;;;;;;;22.14;33.57;96086.88;6158535;28;109603;-59
2023/12/16 03:43:01;;;;;;;38.97;36.17;;;;;;;22.14;33.56;96086.09;6147039;28;109181;-58
2023/12/16 03:46:05;;;;;;;35.17;32.67;;;;;;;22.15;33.67;96098.34;6153720;28;109897;-59
2023/12/16 03:49:08;;;;;;;34.70;32.30;;;;;;;22.15;33.91;96098.34;6154398;28;109265;-59
2023/12/16 03:52:12;;;;;;;36.33;33.73;;;;;;;22.11;34.17;96101.56;6156287;28;109216;-59
2023/12/16 03:55:16;;;;;;;33.80;31.30;;;;;;;22.12;33.85;96105.03;6136926;28;109390;-59
2023/12/16 03:58:19;;;;;;;33.37;30.97;;;;;;;22.13;34.18;96117.28;6152876;28;109152;-60
2023/12/16 04:01:23;;;;;;;31.73;29.53;;;;;;;22.13;33.88;96127.16;6148591;28;110222;-59
2023/12/16 04:04:26;;;;;;;30.03;27.93;;;;;;;22.12;33.66;96126.34;6154975;28;109250;-59
2023/12/16 04:07:29;;;;;;;30.70;28.50;;;;;;;22.14;33.51;96134.06;6149067;28;109223;-59
2023/12/16 04:10:34;;;;;;;28.70;26.70;;;;;;;22.14;33.23;96126.06;6145212;28;108883;-59
2023/12/16 04:13:37;;;;;;;26.83;25.03;;;;;;;22.14;33.68;96137.53;6144504;28;109180;-59
2023/12/16 04:16:40;;;;;;;25.73;23.93;;;;;;;22.14;33.44;96145.53;6145493;28;109432;-59
2023/12/16 04:19:50;;;;;;;25.73;23.83;;;;;;;22.13;33.51;96132.47;6153563;28;109236;-59
2023/12/16 04:22:53;;;;;;;23.70;22.10;;;;;;;22.13;33.12;96135.16;6158504;28;110178;-59
2023/12/16 04:25:59;;;;;;;23.43;21.73;;;;;;;22.14;33.25;96144.72;6155604;28;109092;-59
2023/12/16 04:29:02;;;;;;;21.37;19.87;;;;;;;22.14;33.66;96150.88;6130049;28;112024;-60
2023/12/16 04:32:05;;;;;;;21.43;19.87;;;;;;;22.11;33.41;96146.88;6151903;28;109623;-59
2023/12/16 04:35:08;;;;;;;20.50;19.10;;;;;;;22.11;33.62;96140.75;6157813;28;110078;-59
2023/12/16 04:38:11;;;;;;;20.03;18.60;;;;;;;22.11;33.28;96146.09;6139804;28;109215;-59
2023/12/16 04:41:16;;;;;;;19.50;18.10;;;;;;;22.10;32.92;96136.50;6156797;28;110163;-59
2023/12/16 04:44:19;;;;;;;18.30;17.00;;;;;;;22.11;33.49;96148.75;6155082;28;109445;-59
2023/12/16 04:47:22;;;;;;;16.50;15.40;;;;;;;22.11;33.28;96159.41;6158889;28;109132;-59
2023/12/16 04:50:25;;;;;;;17.30;16.10;;;;;;;22.12;32.76;96163.69;6150103;28;109207;-59
2023/12/16 04:53:28;;;;;;;15.97;14.87;;;;;;;22.11;33.33;96173.53;6148175;28;110187;-59
2023/12/16 04:56:33;;;;;;;14.90;13.80;;;;;;;22.11;32.91;96168.22;6156320;28;110274;-59
2023/12/16 04:59:36;;;;;;;14.33;13.40;;;;;;;22.11;32.71;96167.41;6145742;28;110573;-58
2023/12/16 05:02:39;;;;;;;13.93;12.93;;;;;;;22.11;33.20;96162.09;6134907;28;110291;-58
2023/12/16 05:05:42;;;;;;;13.70;12.70;;;;;;;22.13;32.99;96167.13;6157294;28;109261;-59
2023/12/16 05:08:45;;;;;;;13.37;12.37;;;;;;;22.12;33.24;96179.66;6160435;28;109041;-59
2023/12/16 05:11:50;;;;;;;12.87;11.90;;;;;;;22.10;33.28;96179.94;6159810;28;109320;-59
2023/12/16 05:14:53;;;;;;;12.27;11.37;;;;;;;22.10;33.18;96181.81;6142826;28;109787;-59
2023/12/16 05:17:56;;;;;;;11.53;10.73;;;;;;;22.13;33.17;96188.47;6141586;28;109513;-59
2023/12/16 05:20:59;;;;;;;11.53;10.67;;;;;;;22.13;32.99;96191.13;6160254;28;109280;-59
2023/12/16 05:24:02;;;;;;;11.03;10.23;;;;;;;22.11;33.26;96181.53;6147677;28;109468;-59
2023/12/16 05:27:07;;;;;;;10.70;9.90;;;;;;;22.11;32.91;96192.19;6141171;28;108853;-59
2023/12/16 05:30:11;;;;;;;10.47;9.70;;;;;;;22.12;33.17;96201.00;6155108;28;109157;-59
2023/12/16 05:33:14;;;;;;;10.17;9.37;;;;;;;22.11;32.91;96200.19;6159012;28;109025;-59
2023/12/16 05:36:18;;;;;;;8.77;8.10;;;;;;;22.13;32.92;96207.91;6147683;28;109305;-60
2023/12/16 05:39:21;;;;;;;8.63;7.83;;;;;;;22.10;33.13;96211.16;6159400;28;109189;-61
2023/12/16 05:42:25;;;;;;;8.87;8.20;;;;;;;22.07;33.21;96207.16;6157955;28;109157;-60
2023/12/16 05:45:28;;;;;;;8.77;8.07;;;;;;;22.08;33.82;96206.09;6154018;28;108805;-60
2023/12/16 05:48:31;;;;;;;7.97;7.17;;;;;;;22.09;33.42;96197.03;6149448;28;110369;-61
2023/12/16 05:51:39;;;;;;;6.93;6.43;;;;;;;22.13;33.30;96204.47;6160803;28;110466;-60
2023/12/16 05:54:43;;;;;;;7.00;6.43;;;;;;;22.13;33.71;96213.25;6147720;28;109321;-61
2023/12/16 05:57:47;;;;;;;6.97;6.47;;;;;;;22.12;33.33;96225.00;6147727;28;110324;-60
2023/12/16 06:00:50;;;;;;;6.83;6.13;;;;;;;22.10;33.64;96213.81;6137927;28;110141;-63
2023/12/16 06:03:53;;;;;;;6.20;5.70;;;;;;;22.08;33.44;96216.75;6161033;28;110133;-61
2023/12/16 06:06:57;;;;;;;5.70;5.20;;;;;;;22.08;33.88;96222.09;6150598;28;110162;-61
2023/12/16 06:10:00;;;;;;;6.43;4.93;;;;;;;22.10;33.21;96230.59;6146366;28;109357;-61
2023/12/16 06:13:08;;;;;;;4.90;4.50;;;;;;;22.08;33.76;96240.75;6160756;28;109709;-61
2023/12/16 06:16:15;;;;;;;6.23;4.77;;;;;;;22.11;33.77;96242.84;6158162;28;109256;-60
2023/12/16 06:19:22;;;;;;;5.17;4.67;;;;;;;22.09;34.01;96249.53;6159697;28;109495;-61
2023/12/16 06:22:29;;;;;;;4.53;4.13;;;;;;;22.07;33.62;96255.16;6155717;28;110778;-62
2023/12/16 06:25:33;;;;;;;4.60;4.20;;;;;;;22.06;34.31;96261.56;6144266;28;109112;-62
2023/12/16 06:28:38;;;;;;;6.73;4.60;;;;;;;22.03;34.33;96266.66;6139923;28;109350;-62
2023/12/16 06:31:41;;;;;;;5.00;4.03;;;;;;;22.02;34.48;96271.19;6149220;28;109099;-61
2023/12/16 06:34:46;;;;;;;5.13;4.63;;;;;;;21.99;34.32;96279.69;6156602;28;110145;-61
2023/12/16 06:37:49;;;;;;;3.57;3.27;;;;;;;21.87;34.13;96283.78;6155741;28;109166;-62
2023/12/16 06:40:52;;;;;;;6.50;3.53;;;;;;;21.04;31.90;96281.56;6158941;28;109301;-63
2023/12/16 06:43:56;;;;;;;5.10;3.20;;;;;;;20.85;31.21;96294.63;6143170;28;109290;-62
2023/12/16 06:46:59;;;;;;;19.17;5.63;;;;;;;20.35;31.25;96309.47;6156669;28;109097;-63
2023/12/16 06:50:03;;;;;;;6.43;2.07;;;;;;;20.45;30.21;96309.47;6160610;28;109156;-62
2023/12/16 06:53:06;;;;;;;4.03;1.60;;;;;;;20.29;31.14;96310.50;6155301;28;108964;-62
2023/12/16 06:56:10;;;;;;;2.60;1.93;;;;;;;19.98;31.00;96325.53;6133712;28;111046;-62
2023/12/16 06:59:15;;;;;;;6.63;2.47;;;;;;;19.93;31.24;96331.63;6160616;28;108980;-62
2023/12/16 07:02:18;;;;;;;4.93;2.93;;;;;;;19.81;31.18;96338.19;6157501;28;109695;-61
2023/12/16 07:05:21;;;;;;;4.10;3.33;;;;;;;19.62;30.79;96341.31;6147556;28;110189;-62
2023/12/16 07:08:24;;;;;;;4.07;2.90;;;;;;;19.45;31.43;96343.31;6142281;28;109338;-62
2023/12/16 07:11:27;;;;;;;3.87;2.93;;;;;;;19.41;31.24;96344.91;6141790;28;109159;-62
2023/12/16 07:14:33;;;;;;;3.30;2.67;;;;;;;19.37;31.43;96365.03;6153373;28;109070;-62
2023/12/16 07:17:36;;;;;;;2.93;2.10;;;;;;;19.27;31.39;96360.44;6152078;28;110120;-61
2023/12/16 07:20:40;;;;;;;4.73;1.90;;;;;;;18.90;31.56;96365.72;6150530;28;109161;-61
2023/12/16 07:23:43;;;;;;;2.47;1.47;;;;;;;18.98;31.46;96373.19;6159377;28;109426;-61
2023/12/16 07:26:47;;;;;;;2.03;1.57;;;;;;;18.88;31.53;96375.78;6150252;28;109390;-61
2023/12/16 07:29:52;;;;;;;1.80;1.33;;;;;;;18.93;31.54;96378.47;6140034;28;109438;-62
2023/12/16 07:32:55;;;;;;;3.53;1.73;;;;;;;19.18;31.55;96383.19;6150019;28;109069;-62
2023/12/16 07:35:58;;;;;;;4.80;3.00;;;;;;;19.21;31.47;96380.03;6148468;28;109150;-61
2023/12/16 07:39:01;;;;;;;2.90;2.07;;;;;;;19.31;31.24;96381.94;6144595;28;110053;-59
2023/12/16 07:42:04;;;;;;;3.20;2.40;;;;;;;19.21;31.34;96382.69;6145440;28;109259;-61
2023/12/16 07:45:10;;;;;;;5.47;3.43;;;;;;;18.96;31.02;96385.91;6156720;28;109563;-60
2023/12/16 07:48:14;;;;;;;3.10;2.47;;;;;;;19.28;31.20;96383.25;6145444;28;109165;-62
2023/12/16 07:51:17;;;;;;;2.40;2.20;;;;;;;19.20;31.07;96383.75;6154789;28;109385;-62
2023/12/16 07:54:20;;;;;;;2.67;2.40;;;;;;;19.11;31.08;96391.34;6145371;28;109462;-61
2023/12/16 07:57:24;;;;;;;5.00;3.27;;;;;;;18.73;31.39;96395.00;6153514;28;109139;-63
2023/12/16 08:00:28;;;;;;;3.77;3.40;;;;;;;18.87;31.34;96394.59;6158803;28;109308;-60
2023/12/16 08:03:31;;;;;;;5.93;3.03;;;;;;;19.29;32.19;96398.13;6136121;28;109036;-61
2023/12/16 08:06:34;;;;;;;4.60;2.43;;;;;;;19.96;32.36;96410.00;6156175;28;110157;-60
2023/12/16 08:09:38;;;;;;;5.33;3.27;;;;;;;20.35;33.46;96412.34;6150533;28;108965;-62
2023/12/16 08:12:41;;;;;;;5.27;2.90;;;;;;;20.52;33.53;96416.38;6154207;28;110048;-61
2023/12/16 08:15:45;;;;;;;6.27;3.30;;;;;;;20.61;33.68;96416.66;6132910;28;109142;-61
2023/12/16 08:18:48;;;;;;;10.50;3.13;;;;;;;20.71;33.70;96422.03;6151890;28;109308;-62
2023/12/16 08:21:52;;;;;;;10.10;2.40;;;;;;;20.88;33.57;96427.91;6159758;28;109094;-62
2023/12/16 08:24:55;;;;;;;6.43;2.57;;;;;;;21.12;33.28;96430.09;6157745;28;109301;-61
2023/12/16 08:27:58;;;;;;;11.37;3.43;;;;;;;21.23;33.21;96436.22;6143381;28;111168;-62
2023/12/16 08:31:03;;;;;;;9.47;2.60;;;;;;;21.32;32.91;96429.28;6152527;28;109217;-60
2023/12/16 08:34:07;;;;;;;6.73;2.87;;;;;;;21.35;32.95;96432.25;6153148;28;110164;-61
2023/12/16 08:37:10;;;;;;;6.63;2.53;;;;;;;21.38;32.77;96436.22;6145504;28;109218;-61
2023/12/16 08:40:13;;;;;;;4.23;2.53;;;;;;;21.45;32.67;96436.75;6157456;28;109988;-62
2023/12/16 08:43:16;;;;;;;4.60;2.40;;;;;;;21.52;32.74;96426.63;6158509;28;109485;-60
2023/12/16 08:46:23;;;;;;;7.17;2.60;;;;;;;21.63;32.46;96427.41;6142690;28;109269;-58
2023/12/16 08:49:26;;;;;;;4.37;2.57;;;;;;;21.66;32.94;96433.00;6139643;28;108744;-62
2023/12/16 08:52:31;;;;;;;5.50;2.03;;;;;;;21.71;33.12;96424.22;6151667;28;111840;-62
2023/12/16 08:55:34;;;;;;;5.73;2.80;;;;;;;21.76;33.50;96432.19;6154748;28;110047;-62
2023/12/16 08:58:38;;;;;;;4.87;2.10;;;;;;;21.78;33.17;96443.38;6157459;28;110300;-63
2023/12/16 09:01:42;;;;;;;6.00;2.30;;;;;;;21.83;33.49;96437.25;6137154;28;109331;-63
2023/12/16 09:04:45;;;;;;;6.77;2.50;;;;;;;21.85;33.42;96435.94;6155764;28;109084;-63
2023/12/16 09:07:48;;;;;;;3.13;1.60;;;;;;;21.88;33.80;96423.94;6153343;28;108980;-63
2023/12/16 09:10:51;;;;;;;3.87;2.10;;;;;;;21.96;33.29;96415.38;6147011;28;111529;-65
2023/12/16 09:13:54;;;;;;;5.07;2.20;;;;;;;21.97;33.38;96422.31;6154404;28;109155;-62
2023/12/16 09:17:00;;;;;;;3.40;2.13;;;;;;;21.95;33.46;96414.59;6144405;28;109686;-61
2023/12/16 09:20:03;;;;;;;3.07;2.20;;;;;;;21.99;33.23;96422.84;6153091;28;110087;-62
2023/12/16 09:23:06;;;;;;;4.60;2.40;;;;;;;22.08;33.41;96413.22;6146256;28;109103;-62
2023/12/16 09:26:09;;;;;;;5.70;2.70;;;;;;;22.12;32.87;96408.94;6151008;28;109174;-63
2023/12/16 09:29:13;;;;;;;3.90;2.70;;;;;;;22.17;33.35;96406.25;6157195;28;109157;-61
2023/12/16 09:32:17;;;;;;;8.83;8.07;;;;;;;22.31;33.11;96406.47;6158085;28;109601;-61
2023/12/16 09:35:20;;;;;;;18.77;17.47;;;;;;;22.38;33.48;96398.97;6149118;28;109090;-63
2023/12/16 09:38:23;;;;;;;24.10;22.70;;;;;;;22.42;34.10;96411.50;6153743;28;110213;-61
2023/12/16 09:41:28;;;;;;;26.97;25.33;;;;;;;22.46;34.08;96416.28;6141426;28;109105;-61
2023/12/16 09:44:37;;;;;;;29.50;27.70;;;;;;;22.42;34.49;96402.69;6160288;28;110324;-61
2023/12/16 09:47:41;;;;;;;29.50;27.80;;;;;;;22.42;34.84;96394.69;6145229;28;108978;-62
2023/12/16 09:50:45;;;;;;;29.30;27.40;;;;;;;22.42;35.16;96402.69;6160258;28;112321;-62
2023/12/16 09:53:49;;;;;;;28.77;27.00;;;;;;;22.40;34.99;96402.97;6148438;28;109142;-63
2023/12/16 09:56:53;;;;;;;29.27;27.37;;;;;;;22.40;35.02;96410.97;6145121;28;109041;-63
2023/12/16 09:59:57;;;;;;;27.20;25.60;;;;;;;22.38;35.05;96412.31;6141929;28;110371;-62
2023/12/16 10:03:02;;;;;;;28.50;26.70;;;;;;;22.36;35.07;96427.81;6159228;28;109363;-62
2023/12/16 10:06:06;;;;;;;26.20;24.60;;;;;;;22.37;34.75;96410.72;6153944;28;109089;-63
2023/12/16 10:09:09;;;;;;;25.60;23.97;;;;;;;22.34;34.97;96404.03;6140955;28;110140;-63
2023/12/16 10:12:14;;;;;;;24.00;22.70;;;;;;;22.31;34.88;96409.94;6159020;28;108913;-63
2023/12/16 10:15:29;;;;;;;23.60;22.10;;;;;;;22.31;34.57;96409.94;6159276;28;110662;-62
2023/12/16 10:18:33;;;;;;;22.97;21.47;;;;;;;22.35;34.40;96410.22;6153900;28;109175;-63
2023/12/16 10:21:37;;;;;;;20.90;19.47;;;;;;;22.35;34.86;96404.88;6149180;28;110495;-62
2023/12/16 10:24:41;;;;;;;19.90;18.70;;;;;;;22.37;35.08;96406.19;6150387;28;109275;-63
2023/12/16 10:27:44;;;;;;;21.23;19.83;;;;;;;22.41;36.01;96399.22;6140250;28;110134;-64
2023/12/16 10:30:48;;;;;;;19.10;17.80;;;;;;;22.43;35.85;96396.28;6136991;28;109169;-63
2023/12/16 10:33:52;;;;;;;18.87;17.67;;;;;;;22.33;36.14;96396.31;6156369;28;109265;-63
2023/12/16 10:37:04;;;;;;;18.13;17.03;;;;;;;22.22;36.27;96403.59;6155048;28;109111;-63
2023/12/16 10:40:11;;;;;;;17.13;15.73;;;;;;;21.95;37.71;96409.25;6159013;28;109074;-64
2023/12/16 10:43:14;;;;;;;17.90;16.23;;;;;;;22.04;37.78;96412.97;6151379;28;109865;-60
2023/12/16 10:46:18;;;;;;;16.17;14.60;;;;;;;22.38;39.18;96415.00;6162042;28;109507;-64
2023/12/16 10:49:28;;;;;;;19.50;15.80;;;;;;;22.47;41.48;96413.31;6163561;28;112002;-66
2023/12/16 10:52:39;;;;;;;19.93;15.60;;;;;;;22.50;41.17;96417.31;6152411;28;109086;-63
2023/12/16 10:55:45;;;;;;;19.10;17.03;;;;;;;21.94;41.02;96401.53;6149884;28;110581;-63
2023/12/16 10:58:55;;;;;;;18.03;16.23;;;;;;;22.08;39.78;96408.69;6163962;28;109306;-62
2023/12/16 11:02:01;;;;;;;21.10;16.60;;;;;;;22.17;39.59;96411.56;6163509;28;110347;-62
2023/12/16 11:05:11;;;;;;;19.27;15.30;;;;;;;22.26;39.73;96415.28;6153817;28;109939;-62
2023/12/16 11:08:15;;;;;;;20.80;15.60;;;;;;;22.27;39.97;96413.41;6152790;28;108881;-62
2023/12/16 11:11:20;;;;;;;16.70;15.00;;;;;;;22.31;39.85;96412.59;6162489;28;109252;-61
2023/12/16 11:14:24;;;;;;;16.53;14.27;;;;;;;22.32;39.89;96414.19;6162208;28;108942;-61
2023/12/16 11:17:34;;;;;;;18.83;14.37;;;;;;;22.33;40.00;96406.97;6153091;28;109262;-62
2023/12/16 11:20:44;;;;;;;14.60;13.07;;;;;;;22.30;39.43;96408.34;6160860;28;112175;-62
2023/12/16 11:23:49;;;;;;;13.70;12.40;;;;;;;22.25;39.55;96404.91;6163635;28;111905;-62
2023/12/16 11:26:53;;;;;;;14.27;12.77;;;;;;;22.23;38.93;96397.19;6161920;28;110089;-62
2023/12/16 11:29:57;;;;;;;17.00;13.03;;;;;;;22.22;39.14;96400.13;6151141;28;110294;-63
2023/12/16 11:33:01;;;;;;;14.57;12.30;;;;;;;22.20;38.73;96403.06;6150118;28;109324;-63
2023/12/16 11:36:07;;;;;;;13.10;11.50;;;;;;;22.19;38.84;96400.66;6162955;28;109083;-63
2023/12/16 11:39:36;;;;;;;14.40;11.53;;;;;;;22.18;38.35;96407.03;6152036;28;110051;-61
2023/12/16 11:42:52;;;;;;;12.80;11.03;;;;;;;22.19;38.18;96414.00;6161056;28;109048;-62
2023/12/16 11:45:55;;;;;;;11.63;10.53;;;;;;;22.18;38.60;96412.38;6160074;28;109329;-64
2023/12/16 11:48:58;;;;;;;11.37;10.20;;;;;;;22.16;38.09;96406.53;6159948;28;109002;-62
2023/12/16 11:52:03;;;;;;;11.33;10.23;;;;;;;22.18;38.05;96418.53;6150687;28;109159;-62
2023/12/16 11:55:07;;;;;;;12.90;10.83;;;;;;;22.17;37.79;96413.44;6160973;28;109639;-63
2023/12/16 11:58:10;;;;;;;13.50;10.47;;;;;;;22.18;37.73;96421.19;6139668;28;109325;-63
2023/12/16 12:01:13;;;;;;;10.33;9.40;;;;;;;22.19;38.13;96420.13;6142966;28;109382;-62
2023/12/16 12:04:17;;;;;;;11.67;10.47;;;;;;;22.22;37.70;96421.44;6145579;28;109289;-62
2023/12/16 12:07:21;;;;;;;10.53;9.63;;;;;;;22.21;37.98;96414.53;6161514;28;109333;-66
2023/12/16 12:10:25;;;;;;;10.77;9.77;;;;;;;22.24;38.12;96424.63;6160182;28;109080;-62
2023/12/16 12:13:28;;;;;;;10.57;9.47;;;;;;;22.24;38.55;96424.63;6152359;28;109818;-62
2023/12/16 12:16:31;;;;;;;8.70;7.90;;;;;;;22.22;38.64;96424.13;6159748;28;109143;-63
2023/12/16 12:19:35;;;;;;;9.10;8.20;;;;;;;22.23;38.47;96420.38;6160101;28;110459;-62
2023/12/16 12:22:40;;;;;;;9.80;8.90;;;;;;;22.22;38.17;96429.44;6162158;28;110039;-63
2023/12/16 12:25:44;;;;;;;12.00;8.50;;;;;;;22.20;38.18;96426.25;6151226;28;110492;-63
2023/12/16 12:28:56;;;;;;;9.63;8.23;;;;;;;22.22;38.59;96429.44;6161469;28;109339;-63
2023/12/16 12:32:03;;;;;;;11.97;8.10;;;;;;;22.22;38.48;96430.25;6160635;28;109188;-63
2023/12/16 12:35:08;;;;;;;8.90;8.00;;;;;;;22.19;38.24;96430.78;6159930;28;109575;-63
2023/12/16 12:38:15;;;;;;;8.50;7.57;;;;;;;22.19;38.23;96435.34;6150772;28;109263;-63
2023/12/16 12:41:18;;;;;;;57.00;51.00;;;;;;;21.91;37.30;96432.19;6156360;28;110155;-62
2023/12/16 12:44:21;;;;;;;35.60;32.20;;;;;;;21.88;37.67;96429.28;6155723;28;109590;-62
2023/12/16 12:47:28;;;;;;;30.20;27.23;;;;;;;21.97;37.51;96432.97;6151066;28;109295;-61
2023/12/16 12:50:31;;;;;;;30.00;27.10;;;;;;;21.99;37.97;96430.84;6144793;28;108989;-62
2023/12/16 12:53:37;;;;;;;31.30;28.40;;;;;;;22.04;37.90;96428.19;6137583;28;109289;-62
2023/12/16 12:56:42;;;;;;;30.80;27.80;;;;;;;22.07;37.81;96439.09;6156881;28;109235;-63
2023/12/16 12:59:45;;;;;;;30.17;27.27;;;;;;;22.09;37.29;96436.94;6145477;28;109548;-63
2023/12/16 13:03:05;;;;;;;29.83;26.93;;;;;;;22.11;37.14;96440.13;6146560;28;109314;-63
2023/12/16 13:06:08;;;;;;;27.17;24.67;;;;;;;22.13;37.54;96447.06;6159052;28;109631;-63
2023/12/16 13:09:13;;;;;;;26.90;24.30;;;;;;;22.13;37.13;96453.19;6155095;28;109123;-63
2023/12/16 13:12:17;;;;;;;27.10;24.50;;;;;;;22.14;36.91;96456.66;6134677;28;109523;-63
2023/12/16 13:15:20;;;;;;;26.23;23.83;;;;;;;22.17;36.92;96466.78;6149749;28;109074;-62
2023/12/16 13:18:23;;;;;;;26.70;23.87;;;;;;;22.15;37.26;96468.91;6152747;28;108962;-63
2023/12/16 13:21:29;;;;;;;27.03;24.50;;;;;;;22.14;37.13;96476.13;6151996;28;108951;-62
2023/12/16 13:24:34;;;;;;;28.20;25.50;;;;;;;22.14;37.28;96475.31;6157978;28;109677;-66
2023/12/16 13:27:37;;;;;;;32.03;28.83;;;;;;;22.14;36.91;96483.31;6159114;28;109600;-62
2023/12/16 13:30:40;;;;;;;33.60;29.87;;;;;;;22.13;37.35;96484.38;6147682;28;109622;-61
2023/12/16 13:33:44;;;;;;;32.80;29.30;;;;;;;22.21;36.74;96492.66;6137103;28;109105;-63
2023/12/16 13:36:47;;;;;;;34.00;29.47;;;;;;;22.25;36.78;96496.38;6153495;28;110679;-64
2023/12/16 13:39:55;;;;;;;34.47;30.47;;;;;;;22.19;36.91;96502.00;6159889;28;109366;-62
2023/12/16 13:42:58;;;;;;;15.97;13.53;;;;;;;21.46;34.60;96512.91;6145592;28;109068;-63
2023/12/16 13:46:04;;;;;;;12.40;9.50;;;;;;;21.07;34.88;96509.94;6141180;28;110032;-64
2023/12/16 13:49:08;;;;;;;17.63;15.67;;;;;;;21.42;35.65;96519.84;6159856;28;109137;-63
2023/12/16 13:52:11;;;;;;;19.97;17.00;;;;;;;21.60;35.57;96516.66;6155368;28;109385;-63
2023/12/16 13:55:17;;;;;;;20.30;16.67;;;;;;;21.78;35.20;96528.66;6152038;28;109372;-62
2023/12/16 13:58:22;;;;;;;20.77;15.50;;;;;;;21.88;35.78;96530.56;6157569;28;109259;-62
2023/12/16 14:01:25;;;;;;;18.37;14.70;;;;;;;21.89;35.30;96535.59;6156734;28;109383;-61
2023/12/16 14:04:28;;;;;;;23.07;15.00;;;;;;;22.04;35.21;96538.25;6153955;28;109201;-57
2023/12/16 14:07:31;;;;;;;20.07;15.53;;;;;;;22.24;34.93;96533.97;6146030;28;108690;-56